sensor_id;sensor_type;location;lat;lon;timestamp;P1;durP1;ratioP1;P2;durP2;ratioP2
23680;SDS011;62915;50.832;4.462;2022-12-18T00:00:32;42.38;;;25.90;;
23680;SDS011;62915;50.832;4.462;2022-12-18T00:02:58;41.17;;;21.05;;
23680;SDS011;62915;50.832;4.462;2022-12-18T00:05:23;40.13;;;21.73;;
23680;SDS011;62915;50.832;4.462;2022-12-18T00:07:49;37.47;;;21.77;;
23680;SDS011;62915;50.832;4.462;2022-12-18T00:10:14;38.00;;;20.13;;
23680;SDS011;62915;50.832;4.462;2022-12-18T00:12:43;39.40;;;21.08;;
23680;SDS011;62915;50.832;4.462;2022-12-18T00:15:09;38.05;;;21.10;;
23680;SDS011;62915;50.832;4.462;2022-12-18T00:17:34;35.85;;;19.98;;
23680;SDS011;62915;50.832;4.462;2022-12-18T00:20:00;32.30;;;17.67;;
23680;SDS011;62915;50.832;4.462;2022-12-18T00:22:26;38.17;;;19.10;;
23680;SDS011;62915;50.832;4.462;2022-12-18T00:24:54;32.78;;;17.80;;
23680;SDS011;62915;50.832;4.462;2022-12-18T00:27:19;32.83;;;17.45;;
23680;SDS011;62915;50.832;4.462;2022-12-18T00:29:45;31.25;;;16.77;;
23680;SDS011;62915;50.832;4.462;2022-12-18T00:32:10;36.08;;;16.23;;
23680;SDS011;62915;50.832;4.462;2022-12-18T00:34:36;30.35;;;16.17;;
23680;SDS011;62915;50.832;4.462;2022-12-18T00:37:03;30.80;;;16.75;;
23680;SDS011;62915;50.832;4.462;2022-12-18T00:39:28;30.50;;;15.98;;
23680;SDS011;62915;50.832;4.462;2022-12-18T00:41:54;26.92;;;15.30;;
23680;SDS011;62915;50.832;4.462;2022-12-18T00:44:38;27.48;;;13.90;;
23680;SDS011;62915;50.832;4.462;2022-12-18T00:47:04;24.95;;;13.95;;
23680;SDS011;62915;50.832;4.462;2022-12-18T00:49:29;25.23;;;12.98;;
23680;SDS011;62915;50.832;4.462;2022-12-18T00:51:55;25.73;;;13.82;;
23680;SDS011;62915;50.832;4.462;2022-12-18T00:54:21;23.15;;;12.55;;
23680;SDS011;62915;50.832;4.462;2022-12-18T00:56:46;21.15;;;11.60;;
23680;SDS011;62915;50.832;4.462;2022-12-18T00:59:12;19.30;;;11.82;;
23680;SDS011;62915;50.832;4.462;2022-12-18T01:01:38;21.23;;;12.13;;
23680;SDS011;62915;50.832;4.462;2022-12-18T01:04:03;27.98;;;12.98;;
23680;SDS011;62915;50.832;4.462;2022-12-18T01:06:29;20.50;;;11.82;;
23680;SDS011;62915;50.832;4.462;2022-12-18T01:08:55;23.70;;;13.57;;
23680;SDS011;62915;50.832;4.462;2022-12-18T01:11:21;25.02;;;14.00;;
23680;SDS011;62915;50.832;4.462;2022-12-18T01:13:47;27.52;;;14.07;;
23680;SDS011;62915;50.832;4.462;2022-12-18T01:16:13;23.58;;;12.85;;
23680;SDS011;62915;50.832;4.462;2022-12-18T01:18:40;24.15;;;13.32;;
23680;SDS011;62915;50.832;4.462;2022-12-18T01:21:10;23.77;;;12.77;;
23680;SDS011;62915;50.832;4.462;2022-12-18T01:23:38;21.73;;;11.80;;
23680;SDS011;62915;50.832;4.462;2022-12-18T01:26:08;21.85;;;12.02;;
23680;SDS011;62915;50.832;4.462;2022-12-18T01:28:36;21.52;;;12.50;;
23680;SDS011;62915;50.832;4.462;2022-12-18T01:31:09;20.35;;;11.63;;
23680;SDS011;62915;50.832;4.462;2022-12-18T01:33:38;20.90;;;11.55;;
23680;SDS011;62915;50.832;4.462;2022-12-18T01:36:04;21.23;;;11.93;;
23680;SDS011;62915;50.832;4.462;2022-12-18T01:38:30;23.30;;;12.35;;
23680;SDS011;62915;50.832;4.462;2022-12-18T01:40:59;26.67;;;12.45;;
23680;SDS011;62915;50.832;4.462;2022-12-18T01:43:42;22.27;;;12.25;;
23680;SDS011;62915;50.832;4.462;2022-12-18T01:46:08;22.15;;;12.02;;
23680;SDS011;62915;50.832;4.462;2022-12-18T01:48:34;22.02;;;12.75;;
23680;SDS011;62915;50.832;4.462;2022-12-18T01:50:59;21.88;;;13.02;;
23680;SDS011;62915;50.832;4.462;2022-12-18T01:53:26;21.77;;;12.68;;
23680;SDS011;62915;50.832;4.462;2022-12-18T01:55:54;26.80;;;13.57;;
23680;SDS011;62915;50.832;4.462;2022-12-18T02:01:19;27.77;;;13.30;;
23680;SDS011;62915;50.832;4.462;2022-12-18T02:03:47;25.30;;;14.48;;
23680;SDS011;62915;50.832;4.462;2022-12-18T02:09:00;22.55;;;12.98;;
23680;SDS011;62915;50.832;4.462;2022-12-18T02:17:03;24.38;;;13.10;;
23680;SDS011;62915;50.832;4.462;2022-12-18T02:22:53;25.45;;;14.43;;
23680;SDS011;62915;50.832;4.462;2022-12-18T02:27:54;26.60;;;14.55;;
23680;SDS011;62915;50.832;4.462;2022-12-18T02:30:24;25.63;;;14.05;;
23680;SDS011;62915;50.832;4.462;2022-12-18T02:32:52;27.30;;;13.27;;
23680;SDS011;62915;50.832;4.462;2022-12-18T02:35:20;24.17;;;12.98;;
23680;SDS011;62915;50.832;4.462;2022-12-18T02:37:51;29.55;;;14.13;;
23680;SDS011;62915;50.832;4.462;2022-12-18T02:40:27;22.95;;;13.23;;
23680;SDS011;62915;50.832;4.462;2022-12-18T02:42:53;26.17;;;13.63;;
23680;SDS011;62915;50.832;4.462;2022-12-18T02:45:19;27.10;;;14.30;;
23680;SDS011;62915;50.832;4.462;2022-12-18T02:47:46;25.58;;;13.95;;
23680;SDS011;62915;50.832;4.462;2022-12-18T03:01:33;22.73;;;12.88;;
23680;SDS011;62915;50.832;4.462;2022-12-18T03:04:16;24.75;;;13.73;;
23680;SDS011;62915;50.832;4.462;2022-12-18T03:07:05;28.17;;;13.65;;
23680;SDS011;62915;50.832;4.462;2022-12-18T03:09:40;25.75;;;13.40;;
23680;SDS011;62915;50.832;4.462;2022-12-18T03:12:16;23.17;;;13.45;;
23680;SDS011;62915;50.832;4.462;2022-12-18T03:17:24;24.27;;;12.98;;
23680;SDS011;62915;50.832;4.462;2022-12-18T03:19:52;21.10;;;12.45;;
23680;SDS011;62915;50.832;4.462;2022-12-18T03:22:22;23.52;;;11.82;;
23680;SDS011;62915;50.832;4.462;2022-12-18T03:24:49;22.90;;;12.85;;
23680;SDS011;62915;50.832;4.462;2022-12-18T03:27:18;22.38;;;13.65;;
23680;SDS011;62915;50.832;4.462;2022-12-18T03:29:49;23.05;;;13.35;;
23680;SDS011;62915;50.832;4.462;2022-12-18T03:32:43;25.13;;;13.80;;
23680;SDS011;62915;50.832;4.462;2022-12-18T03:35:35;24.77;;;13.50;;
23680;SDS011;62915;50.832;4.462;2022-12-18T03:38:05;26.10;;;13.73;;
23680;SDS011;62915;50.832;4.462;2022-12-18T03:44:04;22.35;;;12.98;;
23680;SDS011;62915;50.832;4.462;2022-12-18T03:49:08;19.58;;;11.88;;
23680;SDS011;62915;50.832;4.462;2022-12-18T03:54:24;20.42;;;11.20;;
23680;SDS011;62915;50.832;4.462;2022-12-18T03:56:56;23.60;;;12.13;;
23680;SDS011;62915;50.832;4.462;2022-12-18T03:59:25;22.73;;;12.05;;
23680;SDS011;62915;50.832;4.462;2022-12-18T04:01:55;20.33;;;11.15;;
23680;SDS011;62915;50.832;4.462;2022-12-18T04:04:23;18.65;;;10.13;;
23680;SDS011;62915;50.832;4.462;2022-12-18T04:06:50;21.67;;;11.82;;
23680;SDS011;62915;50.832;4.462;2022-12-18T04:09:17;20.73;;;11.38;;
23680;SDS011;62915;50.832;4.462;2022-12-18T04:11:44;18.50;;;11.55;;
23680;SDS011;62915;50.832;4.462;2022-12-18T04:14:11;22.50;;;11.55;;
23680;SDS011;62915;50.832;4.462;2022-12-18T04:16:37;23.50;;;12.10;;
23680;SDS011;62915;50.832;4.462;2022-12-18T04:19:12;22.35;;;11.50;;
23680;SDS011;62915;50.832;4.462;2022-12-18T04:21:38;21.17;;;11.27;;
23680;SDS011;62915;50.832;4.462;2022-12-18T04:24:04;24.25;;;11.38;;
23680;SDS011;62915;50.832;4.462;2022-12-18T04:26:30;20.08;;;10.82;;
23680;SDS011;62915;50.832;4.462;2022-12-18T04:29:06;17.25;;;10.57;;
23680;SDS011;62915;50.832;4.462;2022-12-18T04:31:31;20.08;;;10.95;;
23680;SDS011;62915;50.832;4.462;2022-12-18T04:33:57;18.95;;;10.18;;
23680;SDS011;62915;50.832;4.462;2022-12-18T04:36:23;17.98;;;10.90;;
23680;SDS011;62915;50.832;4.462;2022-12-18T04:38:48;20.70;;;10.48;;
23680;SDS011;62915;50.832;4.462;2022-12-18T04:41:15;20.85;;;10.27;;
23680;SDS011;62915;50.832;4.462;2022-12-18T04:43:41;18.08;;;10.25;;
23680;SDS011;62915;50.832;4.462;2022-12-18T04:46:07;19.17;;;11.57;;
23680;SDS011;62915;50.832;4.462;2022-12-18T04:48:33;16.77;;;10.80;;
23680;SDS011;62915;50.832;4.462;2022-12-18T04:51:00;22.17;;;10.93;;
23680;SDS011;62915;50.832;4.462;2022-12-18T04:53:25;16.50;;;10.38;;
23680;SDS011;62915;50.832;4.462;2022-12-18T04:56:01;19.17;;;10.63;;
23680;SDS011;62915;50.832;4.462;2022-12-18T04:58:28;19.25;;;10.43;;
23680;SDS011;62915;50.832;4.462;2022-12-18T05:00:54;20.50;;;11.10;;
23680;SDS011;62915;50.832;4.462;2022-12-18T05:03:19;21.75;;;11.23;;
23680;SDS011;62915;50.832;4.462;2022-12-18T05:05:48;17.27;;;10.75;;
23680;SDS011;62915;50.832;4.462;2022-12-18T05:08:17;16.70;;;10.18;;
23680;SDS011;62915;50.832;4.462;2022-12-18T05:10:43;18.67;;;11.15;;
23680;SDS011;62915;50.832;4.462;2022-12-18T05:13:11;19.70;;;11.50;;
23680;SDS011;62915;50.832;4.462;2022-12-18T05:15:37;18.08;;;10.43;;
23680;SDS011;62915;50.832;4.462;2022-12-18T05:18:03;19.95;;;11.00;;
23680;SDS011;62915;50.832;4.462;2022-12-18T05:20:29;21.42;;;11.48;;
23680;SDS011;62915;50.832;4.462;2022-12-18T05:22:55;17.27;;;10.27;;
23680;SDS011;62915;50.832;4.462;2022-12-18T05:25:21;20.10;;;10.43;;
23680;SDS011;62915;50.832;4.462;2022-12-18T05:27:48;17.73;;;9.55;;
23680;SDS011;62915;50.832;4.462;2022-12-18T05:30:14;16.33;;;10.18;;
23680;SDS011;62915;50.832;4.462;2022-12-18T05:32:41;15.23;;;9.38;;
23680;SDS011;62915;50.832;4.462;2022-12-18T05:35:08;15.85;;;9.15;;
23680;SDS011;62915;50.832;4.462;2022-12-18T05:37:35;16.20;;;9.23;;
23680;SDS011;62915;50.832;4.462;2022-12-18T05:40:01;14.88;;;9.15;;
23680;SDS011;62915;50.832;4.462;2022-12-18T05:42:28;15.20;;;8.60;;
23680;SDS011;62915;50.832;4.462;2022-12-18T05:44:54;15.73;;;9.10;;
23680;SDS011;62915;50.832;4.462;2022-12-18T05:47:22;16.77;;;9.40;;
23680;SDS011;62915;50.832;4.462;2022-12-18T05:49:47;16.45;;;8.52;;
23680;SDS011;62915;50.832;4.462;2022-12-18T05:52:13;14.65;;;8.77;;
23680;SDS011;62915;50.832;4.462;2022-12-18T05:54:41;16.27;;;8.65;;
23680;SDS011;62915;50.832;4.462;2022-12-18T05:57:13;16.80;;;9.38;;
23680;SDS011;62915;50.832;4.462;2022-12-18T05:59:38;15.80;;;9.02;;
23680;SDS011;62915;50.832;4.462;2022-12-18T06:02:06;14.10;;;8.48;;
23680;SDS011;62915;50.832;4.462;2022-12-18T06:04:34;18.38;;;8.63;;
23680;SDS011;62915;50.832;4.462;2022-12-18T06:07:02;14.98;;;8.35;;
23680;SDS011;62915;50.832;4.462;2022-12-18T06:09:35;16.60;;;8.60;;
23680;SDS011;62915;50.832;4.462;2022-12-18T06:12:01;15.38;;;8.73;;
23680;SDS011;62915;50.832;4.462;2022-12-18T06:14:27;13.43;;;8.68;;
23680;SDS011;62915;50.832;4.462;2022-12-18T06:16:54;16.52;;;8.25;;
23680;SDS011;62915;50.832;4.462;2022-12-18T06:19:20;15.65;;;7.78;;
23680;SDS011;62915;50.832;4.462;2022-12-18T06:21:46;11.65;;;7.22;;
23680;SDS011;62915;50.832;4.462;2022-12-18T06:24:14;13.43;;;8.18;;
23680;SDS011;62915;50.832;4.462;2022-12-18T06:26:42;14.65;;;7.88;;
23680;SDS011;62915;50.832;4.462;2022-12-18T06:29:07;16.05;;;8.45;;
23680;SDS011;62915;50.832;4.462;2022-12-18T06:31:33;12.20;;;7.70;;
23680;SDS011;62915;50.832;4.462;2022-12-18T06:33:59;15.43;;;9.25;;
23680;SDS011;62915;50.832;4.462;2022-12-18T06:36:27;14.18;;;7.88;;
23680;SDS011;62915;50.832;4.462;2022-12-18T06:38:53;15.35;;;8.07;;
23680;SDS011;62915;50.832;4.462;2022-12-18T06:41:19;14.43;;;8.90;;
23680;SDS011;62915;50.832;4.462;2022-12-18T06:43:45;18.27;;;9.30;;
23680;SDS011;62915;50.832;4.462;2022-12-18T06:46:13;12.68;;;8.25;;
23680;SDS011;62915;50.832;4.462;2022-12-18T06:48:39;16.02;;;8.70;;
23680;SDS011;62915;50.832;4.462;2022-12-18T06:51:05;12.73;;;7.72;;
23680;SDS011;62915;50.832;4.462;2022-12-18T06:53:31;14.65;;;8.82;;
23680;SDS011;62915;50.832;4.462;2022-12-18T06:56:05;14.02;;;8.02;;
23680;SDS011;62915;50.832;4.462;2022-12-18T06:58:32;12.85;;;7.55;;
23680;SDS011;62915;50.832;4.462;2022-12-18T07:01:01;12.07;;;6.88;;
23680;SDS011;62915;50.832;4.462;2022-12-18T07:03:28;10.30;;;7.03;;
23680;SDS011;62915;50.832;4.462;2022-12-18T07:05:54;11.52;;;6.72;;
23680;SDS011;62915;50.832;4.462;2022-12-18T07:08:20;11.45;;;6.53;;
23680;SDS011;62915;50.832;4.462;2022-12-18T07:10:47;9.60;;;6.13;;
23680;SDS011;62915;50.832;4.462;2022-12-18T07:13:14;8.75;;;6.30;;
23680;SDS011;62915;50.832;4.462;2022-12-18T07:15:40;10.15;;;6.28;;
23680;SDS011;62915;50.832;4.462;2022-12-18T07:18:06;11.70;;;6.40;;
23680;SDS011;62915;50.832;4.462;2022-12-18T07:20:32;11.80;;;6.70;;
23680;SDS011;62915;50.832;4.462;2022-12-18T07:22:58;10.85;;;6.18;;
23680;SDS011;62915;50.832;4.462;2022-12-18T07:25:26;10.00;;;6.55;;
23680;SDS011;62915;50.832;4.462;2022-12-18T07:27:52;10.73;;;6.28;;
23680;SDS011;62915;50.832;4.462;2022-12-18T07:30:18;12.25;;;6.78;;
23680;SDS011;62915;50.832;4.462;2022-12-18T07:32:46;11.85;;;6.78;;
23680;SDS011;62915;50.832;4.462;2022-12-18T07:35:11;11.13;;;6.60;;
23680;SDS011;62915;50.832;4.462;2022-12-18T07:37:37;13.13;;;6.97;;
23680;SDS011;62915;50.832;4.462;2022-12-18T07:40:03;10.90;;;6.93;;
23680;SDS011;62915;50.832;4.462;2022-12-18T07:42:29;14.10;;;7.15;;
23680;SDS011;62915;50.832;4.462;2022-12-18T07:45:00;7.93;;;5.75;;
23680;SDS011;62915;50.832;4.462;2022-12-18T07:47:27;7.97;;;5.88;;
23680;SDS011;62915;50.832;4.462;2022-12-18T07:49:57;12.50;;;6.45;;
23680;SDS011;62915;50.832;4.462;2022-12-18T07:52:23;11.05;;;6.82;;
23680;SDS011;62915;50.832;4.462;2022-12-18T07:54:48;9.73;;;6.03;;
23680;SDS011;62915;50.832;4.462;2022-12-18T07:57:15;12.45;;;6.57;;
23680;SDS011;62915;50.832;4.462;2022-12-18T07:59:41;12.82;;;6.20;;
23680;SDS011;62915;50.832;4.462;2022-12-18T08:02:07;9.98;;;6.65;;
23680;SDS011;62915;50.832;4.462;2022-12-18T08:04:33;9.13;;;5.90;;
23680;SDS011;62915;50.832;4.462;2022-12-18T08:07:00;8.50;;;5.85;;
23680;SDS011;62915;50.832;4.462;2022-12-18T08:09:26;11.25;;;6.78;;
23680;SDS011;62915;50.832;4.462;2022-12-18T08:11:51;11.18;;;5.63;;
23680;SDS011;62915;50.832;4.462;2022-12-18T08:14:17;9.80;;;5.82;;
23680;SDS011;62915;50.832;4.462;2022-12-18T08:16:43;9.40;;;6.13;;
23680;SDS011;62915;50.832;4.462;2022-12-18T08:19:08;10.40;;;6.47;;
23680;SDS011;62915;50.832;4.462;2022-12-18T08:21:34;10.15;;;6.50;;
23680;SDS011;62915;50.832;4.462;2022-12-18T08:24:02;10.68;;;6.40;;
23680;SDS011;62915;50.832;4.462;2022-12-18T08:26:31;11.75;;;6.65;;
23680;SDS011;62915;50.832;4.462;2022-12-18T08:28:57;10.07;;;6.97;;
23680;SDS011;62915;50.832;4.462;2022-12-18T08:31:25;11.50;;;6.45;;
23680;SDS011;62915;50.832;4.462;2022-12-18T08:33:52;9.32;;;7.05;;
23680;SDS011;62915;50.832;4.462;2022-12-18T08:36:19;12.57;;;6.90;;
23680;SDS011;62915;50.832;4.462;2022-12-18T08:38:50;10.50;;;6.25;;
23680;SDS011;62915;50.832;4.462;2022-12-18T08:41:18;11.77;;;7.13;;
23680;SDS011;62915;50.832;4.462;2022-12-18T08:43:44;10.40;;;6.82;;
23680;SDS011;62915;50.832;4.462;2022-12-18T08:46:36;11.88;;;7.53;;
23680;SDS011;62915;50.832;4.462;2022-12-18T08:49:03;11.57;;;7.45;;
23680;SDS011;62915;50.832;4.462;2022-12-18T08:51:30;12.13;;;7.30;;
23680;SDS011;62915;50.832;4.462;2022-12-18T08:53:56;10.30;;;7.00;;
23680;SDS011;62915;50.832;4.462;2022-12-18T08:56:22;12.80;;;7.53;;
23680;SDS011;62915;50.832;4.462;2022-12-18T08:58:54;14.23;;;8.25;;
23680;SDS011;62915;50.832;4.462;2022-12-18T09:01:20;14.30;;;7.22;;
23680;SDS011;62915;50.832;4.462;2022-12-18T09:03:48;14.50;;;7.75;;
23680;SDS011;62915;50.832;4.462;2022-12-18T09:06:15;13.52;;;7.43;;
23680;SDS011;62915;50.832;4.462;2022-12-18T09:08:43;11.93;;;7.15;;
23680;SDS011;62915;50.832;4.462;2022-12-18T09:11:18;12.95;;;7.85;;
23680;SDS011;62915;50.832;4.462;2022-12-18T09:13:48;12.05;;;6.70;;
23680;SDS011;62915;50.832;4.462;2022-12-18T09:16:15;13.75;;;8.07;;
23680;SDS011;62915;50.832;4.462;2022-12-18T09:18:41;14.60;;;8.90;;
23680;SDS011;62915;50.832;4.462;2022-12-18T09:21:10;15.60;;;7.85;;
23680;SDS011;62915;50.832;4.462;2022-12-18T09:23:41;13.40;;;7.90;;
23680;SDS011;62915;50.832;4.462;2022-12-18T09:26:07;13.68;;;8.20;;
23680;SDS011;62915;50.832;4.462;2022-12-18T09:28:32;13.43;;;8.30;;
23680;SDS011;62915;50.832;4.462;2022-12-18T09:30:58;12.00;;;7.82;;
23680;SDS011;62915;50.832;4.462;2022-12-18T09:33:28;14.20;;;8.52;;
23680;SDS011;62915;50.832;4.462;2022-12-18T09:35:54;13.50;;;8.35;;
23680;SDS011;62915;50.832;4.462;2022-12-18T09:38:20;14.43;;;8.70;;
23680;SDS011;62915;50.832;4.462;2022-12-18T09:43:22;14.48;;;8.73;;
23680;SDS011;62915;50.832;4.462;2022-12-18T09:46:28;14.40;;;8.63;;
23680;SDS011;62915;50.832;4.462;2022-12-18T09:49:00;16.73;;;9.38;;
23680;SDS011;62915;50.832;4.462;2022-12-18T09:51:42;14.10;;;8.88;;
23680;SDS011;62915;50.832;4.462;2022-12-18T09:54:19;14.25;;;9.32;;
23680;SDS011;62915;50.832;4.462;2022-12-18T09:56:47;16.58;;;9.20;;
23680;SDS011;62915;50.832;4.462;2022-12-18T09:59:36;13.82;;;8.88;;
23680;SDS011;62915;50.832;4.462;2022-12-18T10:02:18;18.02;;;8.90;;
23680;SDS011;62915;50.832;4.462;2022-12-18T10:05:14;15.73;;;9.40;;
23680;SDS011;62915;50.832;4.462;2022-12-18T10:10:26;14.68;;;9.70;;
23680;SDS011;62915;50.832;4.462;2022-12-18T10:16:07;17.55;;;10.35;;
23680;SDS011;62915;50.832;4.462;2022-12-18T10:21:13;13.68;;;9.48;;
23680;SDS011;62915;50.832;4.462;2022-12-18T10:23:50;20.92;;;11.60;;
23680;SDS011;62915;50.832;4.462;2022-12-18T10:26:25;25.50;;;13.45;;
23680;SDS011;62915;50.832;4.462;2022-12-18T10:28:52;20.85;;;11.68;;
23680;SDS011;62915;50.832;4.462;2022-12-18T10:31:20;43.92;;;19.40;;
23680;SDS011;62915;50.832;4.462;2022-12-18T10:33:48;20.85;;;11.65;;
23680;SDS011;62915;50.832;4.462;2022-12-18T10:36:14;22.52;;;12.70;;
23680;SDS011;62915;50.832;4.462;2022-12-18T10:38:40;21.92;;;12.40;;
23680;SDS011;62915;50.832;4.462;2022-12-18T10:43:52;21.50;;;11.15;;
23680;SDS011;62915;50.832;4.462;2022-12-18T10:46:35;23.92;;;12.05;;
23680;SDS011;62915;50.832;4.462;2022-12-18T10:49:01;26.58;;;14.90;;
23680;SDS011;62915;50.832;4.462;2022-12-18T10:51:29;19.88;;;11.75;;
23680;SDS011;62915;50.832;4.462;2022-12-18T10:56:44;19.83;;;12.60;;
23680;SDS011;62915;50.832;4.462;2022-12-18T10:59:12;27.35;;;12.95;;
23680;SDS011;62915;50.832;4.462;2022-12-18T11:01:55;20.30;;;12.98;;
23680;SDS011;62915;50.832;4.462;2022-12-18T11:04:25;26.85;;;16.02;;
23680;SDS011;62915;50.832;4.462;2022-12-18T11:12:04;23.15;;;11.93;;
23680;SDS011;62915;50.832;4.462;2022-12-18T11:14:52;24.90;;;14.88;;
23680;SDS011;62915;50.832;4.462;2022-12-18T11:22:33;20.25;;;12.18;;
23680;SDS011;62915;50.832;4.462;2022-12-18T11:27:35;22.95;;;13.40;;
23680;SDS011;62915;50.832;4.462;2022-12-18T11:30:15;21.02;;;12.65;;
23680;SDS011;62915;50.832;4.462;2022-12-18T11:35:35;23.67;;;12.45;;
23680;SDS011;62915;50.832;4.462;2022-12-18T11:40:51;19.00;;;12.20;;
23680;SDS011;62915;50.832;4.462;2022-12-18T11:43:29;21.25;;;12.73;;
23680;SDS011;62915;50.832;4.462;2022-12-18T11:46:02;20.70;;;12.15;;
23680;SDS011;62915;50.832;4.462;2022-12-18T11:48:36;20.67;;;13.43;;
23680;SDS011;62915;50.832;4.462;2022-12-18T11:51:37;21.52;;;12.90;;
23680;SDS011;62915;50.832;4.462;2022-12-18T11:54:14;22.17;;;13.70;;
23680;SDS011;62915;50.832;4.462;2022-12-18T11:56:44;21.90;;;13.18;;
23680;SDS011;62915;50.832;4.462;2022-12-18T11:59:35;19.58;;;12.32;;
23680;SDS011;62915;50.832;4.462;2022-12-18T12:10:35;31.48;;;17.27;;
23680;SDS011;62915;50.832;4.462;2022-12-18T12:21:22;35.28;;;19.48;;
23680;SDS011;62915;50.832;4.462;2022-12-18T12:26:50;29.90;;;15.73;;
23680;SDS011;62915;50.832;4.462;2022-12-18T12:37:23;44.17;;;22.30;;
23680;SDS011;62915;50.832;4.462;2022-12-18T12:39:51;50.38;;;24.98;;
23680;SDS011;62915;50.832;4.462;2022-12-18T12:43:02;40.47;;;22.52;;
23680;SDS011;62915;50.832;4.462;2022-12-18T12:45:34;37.95;;;20.30;;
23680;SDS011;62915;50.832;4.462;2022-12-18T12:51:56;23.23;;;14.38;;
23680;SDS011;62915;50.832;4.462;2022-12-18T12:54:04;31.58;;;18.15;;
23680;SDS011;62915;50.832;4.462;2022-12-18T12:56:39;27.52;;;16.05;;
23680;SDS011;62915;50.832;4.462;2022-12-18T12:59:22;24.10;;;14.10;;
23680;SDS011;62915;50.832;4.462;2022-12-18T13:02:25;30.67;;;15.73;;
23680;SDS011;62915;50.832;4.462;2022-12-18T13:21:21;25.33;;;14.35;;
23680;SDS011;62915;50.832;4.462;2022-12-18T13:25:48;27.05;;;14.95;;
23680;SDS011;62915;50.832;4.462;2022-12-18T13:36:42;36.50;;;18.45;;
23680;SDS011;62915;50.832;4.462;2022-12-18T13:41:43;31.00;;;17.52;;
23680;SDS011;62915;50.832;4.462;2022-12-18T13:44:12;33.35;;;16.80;;
23680;SDS011;62915;50.832;4.462;2022-12-18T13:46:55;35.80;;;16.98;;
23680;SDS011;62915;50.832;4.462;2022-12-18T13:49:26;34.33;;;15.18;;
23680;SDS011;62915;50.832;4.462;2022-12-18T13:51:58;43.63;;;22.05;;
23680;SDS011;62915;50.832;4.462;2022-12-18T13:57:04;24.65;;;14.80;;
23680;SDS011;62915;50.832;4.462;2022-12-18T14:04:44;27.05;;;15.38;;
23680;SDS011;62915;50.832;4.462;2022-12-18T14:07:12;30.10;;;15.70;;
23680;SDS011;62915;50.832;4.462;2022-12-18T14:09:44;27.95;;;15.45;;
23680;SDS011;62915;50.832;4.462;2022-12-18T14:12:17;38.10;;;19.77;;
23680;SDS011;62915;50.832;4.462;2022-12-18T14:15:06;29.20;;;16.23;;
23680;SDS011;62915;50.832;4.462;2022-12-18T14:20:47;31.52;;;16.58;;
23680;SDS011;62915;50.832;4.462;2022-12-18T14:28:47;27.42;;;15.13;;
23680;SDS011;62915;50.832;4.462;2022-12-18T14:31:17;32.63;;;16.75;;
23680;SDS011;62915;50.832;4.462;2022-12-18T14:33:47;37.92;;;20.35;;
23680;SDS011;62915;50.832;4.462;2022-12-18T14:36:31;33.80;;;18.58;;
23680;SDS011;62915;50.832;4.462;2022-12-18T14:38:57;32.15;;;18.17;;
23680;SDS011;62915;50.832;4.462;2022-12-18T14:41:24;42.50;;;21.85;;
23680;SDS011;62915;50.832;4.462;2022-12-18T14:43:54;33.70;;;19.10;;
23680;SDS011;62915;50.832;4.462;2022-12-18T14:46:34;35.28;;;16.83;;
23680;SDS011;62915;50.832;4.462;2022-12-18T14:49:03;32.92;;;18.25;;
23680;SDS011;62915;50.832;4.462;2022-12-18T14:51:54;33.60;;;19.13;;
23680;SDS011;62915;50.832;4.462;2022-12-18T14:54:22;31.38;;;18.80;;
23680;SDS011;62915;50.832;4.462;2022-12-18T14:56:50;32.83;;;18.70;;
23680;SDS011;62915;50.832;4.462;2022-12-18T14:59:23;35.72;;;19.05;;
23680;SDS011;62915;50.832;4.462;2022-12-18T15:04:29;35.67;;;17.02;;
23680;SDS011;62915;50.832;4.462;2022-12-18T15:07:05;32.72;;;17.10;;
23680;SDS011;62915;50.832;4.462;2022-12-18T15:09:31;35.22;;;19.13;;
23680;SDS011;62915;50.832;4.462;2022-12-18T15:12:00;35.17;;;16.45;;
23680;SDS011;62915;50.832;4.462;2022-12-18T15:16:55;35.13;;;18.10;;
23680;SDS011;62915;50.832;4.462;2022-12-18T15:19:31;32.25;;;17.45;;
23680;SDS011;62915;50.832;4.462;2022-12-18T15:21:57;30.42;;;17.13;;
23680;SDS011;62915;50.832;4.462;2022-12-18T15:24:25;34.35;;;18.10;;
23680;SDS011;62915;50.832;4.462;2022-12-18T15:26:54;38.05;;;18.08;;
23680;SDS011;62915;50.832;4.462;2022-12-18T15:29:21;33.17;;;17.05;;
23680;SDS011;62915;50.832;4.462;2022-12-18T15:32:03;37.13;;;19.13;;
23680;SDS011;62915;50.832;4.462;2022-12-18T15:34:31;38.33;;;20.50;;
23680;SDS011;62915;50.832;4.462;2022-12-18T15:36:59;42.40;;;21.92;;
23680;SDS011;62915;50.832;4.462;2022-12-18T15:39:25;38.92;;;19.75;;
23680;SDS011;62915;50.832;4.462;2022-12-18T15:41:51;34.70;;;20.42;;
23680;SDS011;62915;50.832;4.462;2022-12-18T15:44:37;34.47;;;19.40;;
23680;SDS011;62915;50.832;4.462;2022-12-18T15:47:04;37.00;;;20.17;;
23680;SDS011;62915;50.832;4.462;2022-12-18T15:49:35;32.28;;;18.85;;
23680;SDS011;62915;50.832;4.462;2022-12-18T15:52:01;43.75;;;21.80;;
23680;SDS011;62915;50.832;4.462;2022-12-18T15:54:28;55.35;;;24.83;;
23680;SDS011;62915;50.832;4.462;2022-12-18T15:59:58;33.25;;;17.90;;
23680;SDS011;62915;50.832;4.462;2022-12-18T16:02:24;43.88;;;23.95;;
23680;SDS011;62915;50.832;4.462;2022-12-18T16:04:51;37.05;;;20.17;;
23680;SDS011;62915;50.832;4.462;2022-12-18T16:07:17;37.63;;;19.05;;
23680;SDS011;62915;50.832;4.462;2022-12-18T16:09:43;36.30;;;19.20;;
23680;SDS011;62915;50.832;4.462;2022-12-18T16:12:27;33.38;;;18.13;;
23680;SDS011;62915;50.832;4.462;2022-12-18T16:14:53;39.33;;;18.75;;
23680;SDS011;62915;50.832;4.462;2022-12-18T16:17:19;37.47;;;20.85;;
23680;SDS011;62915;50.832;4.462;2022-12-18T16:19:44;43.10;;;22.25;;
23680;SDS011;62915;50.832;4.462;2022-12-18T16:22:20;38.03;;;20.38;;
23680;SDS011;62915;50.832;4.462;2022-12-18T16:24:48;47.28;;;22.75;;
23680;SDS011;62915;50.832;4.462;2022-12-18T16:27:16;44.55;;;22.85;;
23680;SDS011;62915;50.832;4.462;2022-12-18T16:29:42;45.55;;;22.70;;
23680;SDS011;62915;50.832;4.462;2022-12-18T16:32:08;43.70;;;20.35;;
23680;SDS011;62915;50.832;4.462;2022-12-18T16:34:37;48.28;;;23.20;;
23680;SDS011;62915;50.832;4.462;2022-12-18T16:37:04;41.10;;;21.35;;
23680;SDS011;62915;50.832;4.462;2022-12-18T16:39:30;45.33;;;22.75;;
23680;SDS011;62915;50.832;4.462;2022-12-18T16:42:03;39.08;;;19.85;;
23680;SDS011;62915;50.832;4.462;2022-12-18T16:44:32;68.85;;;25.92;;
23680;SDS011;62915;50.832;4.462;2022-12-18T16:46:58;45.85;;;21.90;;
23680;SDS011;62915;50.832;4.462;2022-12-18T16:49:26;35.67;;;18.08;;
23680;SDS011;62915;50.832;4.462;2022-12-18T16:51:53;38.50;;;19.15;;
23680;SDS011;62915;50.832;4.462;2022-12-18T16:54:18;38.13;;;18.55;;
23680;SDS011;62915;50.832;4.462;2022-12-18T16:56:44;29.45;;;17.85;;
23680;SDS011;62915;50.832;4.462;2022-12-18T16:59:14;31.50;;;16.63;;
23680;SDS011;62915;50.832;4.462;2022-12-18T17:01:40;38.95;;;19.95;;
23680;SDS011;62915;50.832;4.462;2022-12-18T17:04:06;35.38;;;18.85;;
23680;SDS011;62915;50.832;4.462;2022-12-18T17:06:33;33.95;;;17.10;;
23680;SDS011;62915;50.832;4.462;2022-12-18T17:09:13;34.45;;;18.55;;
23680;SDS011;62915;50.832;4.462;2022-12-18T17:11:42;33.63;;;18.48;;
23680;SDS011;62915;50.832;4.462;2022-12-18T17:14:09;37.22;;;18.67;;
23680;SDS011;62915;50.832;4.462;2022-12-18T17:16:40;27.40;;;16.08;;
23680;SDS011;62915;50.832;4.462;2022-12-18T17:19:06;38.55;;;18.63;;